sensor_id;sensor_type;location;lat;lon;timestamp;pressure;altitude;pressure_sealevel;temperature;humidity
37078;BME280;22989;55.998;37.212;2024-01-30T00:00:01;41625.72;;;-145.39;59.84
37078;BME280;22989;55.998;37.212;2024-01-30T00:02:30;41608.16;;;-145.39;59.86
37078;BME280;22989;55.998;37.212;2024-01-30T00:04:56;41660.88;;;-145.39;59.84
37078;BME280;22989;55.998;37.212;2024-01-30T00:07:22;41606.19;;;-145.39;59.84
37078;BME280;22989;55.998;37.212;2024-01-30T00:09:47;41614.00;;;-145.39;59.77
37078;BME280;22989;55.998;37.212;2024-01-30T00:12:13;41635.50;;;-145.39;59.87
37078;BME280;22989;55.998;37.212;2024-01-30T00:14:41;41645.25;;;-145.39;59.93
37078;BME280;22989;55.998;37.212;2024-01-30T00:17:06;41614.00;;;-145.39;59.89
37078;BME280;22989;55.998;37.212;2024-01-30T00:19:32;41666.72;;;-145.39;59.86
37078;BME280;22989;55.998;37.212;2024-01-30T00:21:58;41637.44;;;-145.39;59.98
37078;BME280;22989;55.998;37.212;2024-01-30T00:24:24;41633.53;;;-145.39;59.84
37078;BME280;22989;55.998;37.212;2024-01-30T00:26:50;41617.91;;;-145.39;59.91
37078;BME280;22989;55.998;37.212;2024-01-30T00:29:15;41627.69;;;-145.39;59.97
37078;BME280;22989;55.998;37.212;2024-01-30T00:31:45;41651.09;;;-145.39;59.91
37078;BME280;22989;55.998;37.212;2024-01-30T00:34:11;41633.53;;;-145.39;60.01
37078;BME280;22989;55.998;37.212;2024-01-30T00:36:37;41651.09;;;-145.39;59.98
37078;BME280;22989;55.998;37.212;2024-01-30T00:39:02;41645.25;;;-145.39;59.91
37078;BME280;22989;55.998;37.212;2024-01-30T00:41:32;41645.25;;;-145.39;59.89
37078;BME280;22989;55.998;37.212;2024-01-30T00:43:57;41621.81;;;-145.39;59.97
37078;BME280;22989;55.998;37.212;2024-01-30T00:46:23;41623.78;;;-145.39;59.91
37078;BME280;22989;55.998;37.212;2024-01-30T00:48:48;41619.88;;;-145.39;59.99
37078;BME280;22989;55.998;37.212;2024-01-30T00:51:14;41625.72;;;-145.39;59.98
37078;BME280;22989;55.998;37.212;2024-01-30T00:53:40;41649.16;;;-145.39;59.98
37078;BME280;22989;55.998;37.212;2024-01-30T00:56:07;41639.38;;;-145.39;60.04
37078;BME280;22989;55.998;37.212;2024-01-30T00:58:33;41627.69;;;-145.39;59.96
37078;BME280;22989;55.998;37.212;2024-01-30T01:00:58;41643.28;;;-145.39;60.03
37078;BME280;22989;55.998;37.212;2024-01-30T01:03:24;41660.88;;;-145.39;60.10
37078;BME280;22989;55.998;37.212;2024-01-30T01:05:50;41627.69;;;-145.39;60.12
37078;BME280;22989;55.998;37.212;2024-01-30T01:08:15;41647.19;;;-145.39;60.01
37078;BME280;22989;55.998;37.212;2024-01-30T01:10:41;41617.91;;;-145.39;60.13
37078;BME280;22989;55.998;37.212;2024-01-30T01:13:06;41639.38;;;-145.39;60.05
37078;BME280;22989;55.998;37.212;2024-01-30T01:15:32;41639.38;;;-145.39;59.97
37078;BME280;22989;55.998;37.212;2024-01-30T01:17:57;41633.53;;;-145.39;60.12
37078;BME280;22989;55.998;37.212;2024-01-30T01:20:22;41647.19;;;-145.39;60.06
37078;BME280;22989;55.998;37.212;2024-01-30T01:22:48;41647.19;;;-145.39;60.13
37078;BME280;22989;55.998;37.212;2024-01-30T01:25:14;41655.00;;;-145.39;60.24
37078;BME280;22989;55.998;37.212;2024-01-30T01:27:40;41641.34;;;-145.39;60.13
37078;BME280;22989;55.998;37.212;2024-01-30T01:30:10;41637.44;;;-145.39;60.23
37078;BME280;22989;55.998;37.212;2024-01-30T01:32:36;41635.50;;;-145.39;60.17
37078;BME280;22989;55.998;37.212;2024-01-30T01:35:02;41631.59;;;-145.39;60.20
37078;BME280;22989;55.998;37.212;2024-01-30T01:37:28;41617.91;;;-145.39;60.27
37078;BME280;22989;55.998;37.212;2024-01-30T01:39:53;41649.16;;;-145.39;60.13
37078;BME280;22989;55.998;37.212;2024-01-30T01:42:19;41633.53;;;-145.39;60.17
37078;BME280;22989;55.998;37.212;2024-01-30T01:44:44;41637.44;;;-145.39;60.23
37078;BME280;22989;55.998;37.212;2024-01-30T01:47:10;41629.63;;;-145.39;60.23
37078;BME280;22989;55.998;37.212;2024-01-30T01:49:35;41604.25;;;-145.39;60.18
37078;BME280;22989;55.998;37.212;2024-01-30T01:52:01;41582.78;;;-145.39;60.25
37078;BME280;22989;55.998;37.212;2024-01-30T01:54:28;41625.72;;;-145.39;60.16
37078;BME280;22989;55.998;37.212;2024-01-30T01:56:54;41602.31;;;-145.39;60.21
37078;BME280;22989;55.998;37.212;2024-01-30T01:59:20;41604.25;;;-145.39;60.18
37078;BME280;22989;55.998;37.212;2024-01-30T02:01:47;41623.78;;;-145.39;60.14
37078;BME280;22989;55.998;37.212;2024-01-30T02:04:15;41588.63;;;-145.39;60.13
37078;BME280;22989;55.998;37.212;2024-01-30T02:06:41;41596.44;;;-145.39;60.17
37078;BME280;22989;55.998;37.212;2024-01-30T02:09:06;41614.00;;;-145.39;60.23
37078;BME280;22989;55.998;37.212;2024-01-30T02:11:32;41573.03;;;-145.39;60.15
37078;BME280;22989;55.998;37.212;2024-01-30T02:14:02;41588.63;;;-145.39;60.12
37078;BME280;22989;55.998;37.212;2024-01-30T02:16:29;41592.53;;;-145.39;60.12
37078;BME280;22989;55.998;37.212;2024-01-30T02:18:55;41596.44;;;-145.39;60.18
37078;BME280;22989;55.998;37.212;2024-01-30T02:21:20;41571.06;;;-145.39;60.11
37078;BME280;22989;55.998;37.212;2024-01-30T02:23:50;41569.13;;;-145.39;60.01
37078;BME280;22989;55.998;37.212;2024-01-30T02:26:16;41612.06;;;-145.39;60.12
37078;BME280;22989;55.998;37.212;2024-01-30T02:28:41;41559.34;;;-145.39;60.06
37078;BME280;22989;55.998;37.212;2024-01-30T02:31:07;41535.94;;;-145.39;60.18
37078;BME280;22989;55.998;37.212;2024-01-30T02:33:32;41559.34;;;-145.39;60.11
37078;BME280;22989;55.998;37.212;2024-01-30T02:35:58;41571.06;;;-145.39;60.00
37078;BME280;22989;55.998;37.212;2024-01-30T02:38:24;41565.22;;;-145.39;59.94
37078;BME280;22989;55.998;37.212;2024-01-30T02:40:50;41524.22;;;-145.39;59.98
37078;BME280;22989;55.998;37.212;2024-01-30T02:43:16;41573.03;;;-145.39;59.91
37078;BME280;22989;55.998;37.212;2024-01-30T02:45:42;41553.50;;;-145.39;59.94
37078;BME280;22989;55.998;37.212;2024-01-30T02:48:08;41557.41;;;-145.39;59.95
37078;BME280;22989;55.998;37.212;2024-01-30T02:50:33;41561.31;;;-145.39;59.89
37078;BME280;22989;55.998;37.212;2024-01-30T02:52:59;41576.91;;;-145.39;59.94
37078;BME280;22989;55.998;37.212;2024-01-30T02:55:24;41582.78;;;-145.39;60.02
37078;BME280;22989;55.998;37.212;2024-01-30T02:57:50;41596.44;;;-145.39;59.80
37078;BME280;22989;55.998;37.212;2024-01-30T03:00:15;41578.88;;;-145.39;59.86
37078;BME280;22989;55.998;37.212;2024-01-30T03:02:41;41569.13;;;-145.39;59.77
37078;BME280;22989;55.998;37.212;2024-01-30T03:05:08;41541.78;;;-145.39;59.76
37078;BME280;22989;55.998;37.212;2024-01-30T03:07:34;41535.94;;;-145.39;59.77
37078;BME280;22989;55.998;37.212;2024-01-30T03:09:59;41539.84;;;-145.39;59.79
37078;BME280;22989;55.998;37.212;2024-01-30T03:12:25;41539.84;;;-145.39;59.72
37078;BME280;22989;55.998;37.212;2024-01-30T03:14:50;41541.78;;;-145.39;59.62
37078;BME280;22989;55.998;37.212;2024-01-30T03:17:17;41543.75;;;-145.39;59.61
37078;BME280;22989;55.998;37.212;2024-01-30T03:19:42;41514.44;;;-145.39;59.67
37078;BME280;22989;55.998;37.212;2024-01-30T03:22:08;41514.44;;;-145.39;59.40
37078;BME280;22989;55.998;37.212;2024-01-30T03:24:33;41528.13;;;-145.39;59.62
37078;BME280;22989;55.998;37.212;2024-01-30T03:26:59;41524.22;;;-145.39;59.64
37078;BME280;22989;55.998;37.212;2024-01-30T03:29:24;41533.97;;;-145.39;59.67
37078;BME280;22989;55.998;37.212;2024-01-30T03:31:50;41528.13;;;-145.39;59.65
37078;BME280;22989;55.998;37.212;2024-01-30T03:34:16;41526.16;;;-145.39;59.58
37078;BME280;22989;55.998;37.212;2024-01-30T03:36:41;41494.94;;;-145.39;59.54
37078;BME280;22989;55.998;37.212;2024-01-30T03:39:07;41502.75;;;-145.39;59.55
37078;BME280;22989;55.998;37.212;2024-01-30T03:41:33;41504.69;;;-145.39;59.50
37078;BME280;22989;55.998;37.212;2024-01-30T03:43:58;41537.88;;;-145.39;59.57
37078;BME280;22989;55.998;37.212;2024-01-30T03:46:24;41510.56;;;-145.39;59.52
37078;BME280;22989;55.998;37.212;2024-01-30T03:48:50;41516.41;;;-145.39;59.52
37078;BME280;22989;55.998;37.212;2024-01-30T03:51:15;41516.41;;;-145.39;59.46
37078;BME280;22989;55.998;37.212;2024-01-30T03:53:42;41510.56;;;-145.39;59.42
37078;BME280;22989;55.998;37.212;2024-01-30T03:56:08;41528.13;;;-145.39;59.34
37078;BME280;22989;55.998;37.212;2024-01-30T03:58:33;41533.97;;;-145.39;59.57
37078;BME280;22989;55.998;37.212;2024-01-30T04:00:59;41516.41;;;-145.39;59.39
37078;BME280;22989;55.998;37.212;2024-01-30T04:03:24;41555.44;;;-145.39;59.48
37078;BME280;22989;55.998;37.212;2024-01-30T04:05:51;41518.34;;;-145.39;59.41
37078;BME280;22989;55.998;37.212;2024-01-30T04:08:17;41530.06;;;-145.39;59.37
37078;BME280;22989;55.998;37.212;2024-01-30T04:10:43;41498.84;;;-145.39;59.28
37078;BME280;22989;55.998;37.212;2024-01-30T04:13:08;41514.44;;;-145.39;59.29
37078;BME280;22989;55.998;37.212;2024-01-30T04:15:34;41479.31;;;-145.39;59.25
37078;BME280;22989;55.998;37.212;2024-01-30T04:18:00;41537.88;;;-145.39;59.28
37078;BME280;22989;55.998;37.212;2024-01-30T04:20:27;41475.41;;;-145.39;59.22
37078;BME280;22989;55.998;37.212;2024-01-30T04:22:52;41473.47;;;-145.39;59.25
37078;BME280;22989;55.998;37.212;2024-01-30T04:25:18;41481.28;;;-145.39;59.15
37078;BME280;22989;55.998;37.212;2024-01-30T04:27:43;41496.88;;;-145.39;59.17
37078;BME280;22989;55.998;37.212;2024-01-30T04:30:09;41504.69;;;-145.39;59.31
37078;BME280;22989;55.998;37.212;2024-01-30T04:32:35;41469.56;;;-145.39;59.12
37078;BME280;22989;55.998;37.212;2024-01-30T04:35:01;41498.84;;;-145.39;59.03
37078;BME280;22989;55.998;37.212;2024-01-30T04:37:27;41500.78;;;-145.39;59.10
37078;BME280;22989;55.998;37.212;2024-01-30T04:39:53;41487.13;;;-145.39;59.10
37078;BME280;22989;55.998;37.212;2024-01-30T04:42:18;41473.47;;;-145.39;59.07
37078;BME280;22989;55.998;37.212;2024-01-30T04:44:44;41514.44;;;-145.39;59.08
37078;BME280;22989;55.998;37.212;2024-01-30T04:47:09;41518.34;;;-145.39;58.91
37078;BME280;22989;55.998;37.212;2024-01-30T04:49:38;41487.13;;;-145.39;59.00
37078;BME280;22989;55.998;37.212;2024-01-30T04:52:05;41453.94;;;-145.39;59.02
37078;BME280;22989;55.998;37.212;2024-01-30T04:54:31;41494.94;;;-145.39;58.92
37078;BME280;22989;55.998;37.212;2024-01-30T04:56:56;41465.66;;;-145.39;58.97
37078;BME280;22989;55.998;37.212;2024-01-30T04:59:22;41471.50;;;-145.39;58.93
37078;BME280;22989;55.998;37.212;2024-01-30T05:01:47;41475.41;;;-145.39;58.94
37078;BME280;22989;55.998;37.212;2024-01-30T05:04:13;41494.94;;;-145.39;58.94
37078;BME280;22989;55.998;37.212;2024-01-30T05:06:38;41502.75;;;-145.39;59.06
37078;BME280;22989;55.998;37.212;2024-01-30T05:09:04;41510.56;;;-145.39;59.09
37078;BME280;22989;55.998;37.212;2024-01-30T05:11:30;41535.94;;;-145.39;59.06
37078;BME280;22989;55.998;37.212;2024-01-30T05:13:55;41549.59;;;-145.39;58.95
37078;BME280;22989;55.998;37.212;2024-01-30T05:16:21;41563.25;;;-145.39;58.86
37078;BME280;22989;55.998;37.212;2024-01-30T05:18:47;41612.06;;;-145.39;58.91
37078;BME280;22989;55.998;37.212;2024-01-30T05:21:12;41635.50;;;-145.39;58.82
37078;BME280;22989;55.998;37.212;2024-01-30T05:23:38;41647.19;;;-145.39;58.77
37078;BME280;22989;55.998;37.212;2024-01-30T05:26:03;41760.44;;;-145.39;58.75
37078;BME280;22989;55.998;37.212;2024-01-30T05:28:29;41869.75;;;-145.39;58.86
37078;BME280;22989;55.998;37.212;2024-01-30T05:30:58;41998.59;;;-145.39;58.87
37078;BME280;22989;55.998;37.212;2024-01-30T05:33:24;42023.97;;;-145.39;58.82
37078;BME280;22989;55.998;37.212;2024-01-30T05:35:50;42090.38;;;-145.39;58.87
37078;BME280;22989;55.998;37.212;2024-01-30T05:38:16;42137.22;;;-145.39;58.75
37078;BME280;22989;55.998;37.212;2024-01-30T05:40:41;42164.56;;;-145.39;58.76
37078;BME280;22989;55.998;37.212;2024-01-30T05:43:07;42285.59;;;-145.39;58.72
37078;BME280;22989;55.998;37.212;2024-01-30T05:45:33;42369.56;;;-145.39;58.72
37078;BME280;22989;55.998;37.212;2024-01-30T05:48:00;42494.53;;;-145.39;58.72
37078;BME280;22989;55.998;37.212;2024-01-30T05:50:26;42598.00;;;-145.39;58.79
37078;BME280;22989;55.998;37.212;2024-01-30T05:52:52;42717.13;;;-145.39;58.75
37078;BME280;22989;55.998;37.212;2024-01-30T05:55:18;42758.13;;;-145.39;58.70
37078;BME280;22989;55.998;37.212;2024-01-30T05:57:43;42822.56;;;-145.39;58.67
37078;BME280;22989;55.998;37.212;2024-01-30T06:00:09;42849.91;;;-145.39;58.71
37078;BME280;22989;55.998;37.212;2024-01-30T06:02:34;42900.69;;;-145.39;58.66
37078;BME280;22989;55.998;37.212;2024-01-30T06:05:00;42959.28;;;-145.39;58.72
37078;BME280;22989;55.998;37.212;2024-01-30T06:07:25;43019.81;;;-145.39;58.52
37078;BME280;22989;55.998;37.212;2024-01-30T06:09:51;43111.59;;;-145.39;58.65
37078;BME280;22989;55.998;37.212;2024-01-30T06:12:16;43094.00;;;-145.39;58.62
37078;BME280;22989;55.998;37.212;2024-01-30T06:14:42;43162.38;;;-145.39;58.58
37078;BME280;22989;55.998;37.212;2024-01-30T06:17:08;43256.09;;;-145.39;58.51
37078;BME280;22989;55.998;37.212;2024-01-30T06:19:34;43263.91;;;-145.39;58.59
37078;BME280;22989;55.998;37.212;2024-01-30T06:22:00;43224.84;;;-145.39;58.67
37078;BME280;22989;55.998;37.212;2024-01-30T06:24:25;43252.19;;;-145.39;58.56
37078;BME280;22989;55.998;37.212;2024-01-30T06:26:51;43215.09;;;-145.39;58.48
37078;BME280;22989;55.998;37.212;2024-01-30T06:29:17;43209.22;;;-145.39;58.46
37078;BME280;22989;55.998;37.212;2024-01-30T06:31:42;43146.75;;;-145.39;58.36
37078;BME280;22989;55.998;37.212;2024-01-30T06:34:09;43179.94;;;-145.39;58.46
37078;BME280;22989;55.998;37.212;2024-01-30T06:36:34;43191.66;;;-145.39;58.43
37078;BME280;22989;55.998;37.212;2024-01-30T06:39:01;43240.47;;;-145.39;58.44
37078;BME280;22989;55.998;37.212;2024-01-30T06:41:26;43119.41;;;-145.39;58.38
37078;BME280;22989;55.998;37.212;2024-01-30T06:43:52;43154.56;;;-145.39;58.35
37078;BME280;22989;55.998;37.212;2024-01-30T06:46:17;43195.56;;;-145.39;58.48
37078;BME280;22989;55.998;37.212;2024-01-30T06:48:43;43172.13;;;-145.39;58.41
37078;BME280;22989;55.998;37.212;2024-01-30T06:51:10;43240.47;;;-145.39;58.42
37078;BME280;22989;55.998;37.212;2024-01-30T06:53:36;43195.56;;;-145.39;58.38
37078;BME280;22989;55.998;37.212;2024-01-30T06:56:02;43283.44;;;-145.39;58.44
37078;BME280;22989;55.998;37.212;2024-01-30T06:58:28;43381.09;;;-145.39;58.42
37078;BME280;22989;55.998;37.212;2024-01-30T07:00:54;43476.78;;;-145.39;58.41
37078;BME280;22989;55.998;37.212;2024-01-30T07:03:19;43486.56;;;-145.39;58.48
37078;BME280;22989;55.998;37.212;2024-01-30T07:05:45;43467.03;;;-145.39;58.32
37078;BME280;22989;55.998;37.212;2024-01-30T07:08:10;43385.00;;;-145.39;58.27
37078;BME280;22989;55.998;37.212;2024-01-30T07:10:36;43400.63;;;-145.39;58.14
37078;BME280;22989;55.998;37.212;2024-01-30T07:13:01;43373.28;;;-145.39;58.17
37078;BME280;22989;55.998;37.212;2024-01-30T07:15:27;43439.69;;;-145.39;58.24
37078;BME280;22989;55.998;37.212;2024-01-30T07:17:53;43396.72;;;-145.39;58.30
37078;BME280;22989;55.998;37.212;2024-01-30T07:20:18;43369.38;;;-145.39;58.29
37078;BME280;22989;55.998;37.212;2024-01-30T07:22:45;43504.13;;;-145.39;58.21
37078;BME280;22989;55.998;37.212;2024-01-30T07:25:11;43558.81;;;-145.39;58.14
37078;BME280;22989;55.998;37.212;2024-01-30T07:27:36;43564.69;;;-145.39;58.23
37078;BME280;22989;55.998;37.212;2024-01-30T07:30:02;43570.53;;;-145.39;58.02
37078;BME280;22989;55.998;37.212;2024-01-30T07:32:28;43572.50;;;-145.39;58.02
37078;BME280;22989;55.998;37.212;2024-01-30T07:34:53;43617.41;;;-145.39;58.00
37078;BME280;22989;55.998;37.212;2024-01-30T07:37:19;43572.50;;;-145.39;58.03
37078;BME280;22989;55.998;37.212;2024-01-30T07:39:44;43549.06;;;-145.39;57.97
37078;BME280;22989;55.998;37.212;2024-01-30T07:42:10;43601.78;;;-145.39;57.91
37078;BME280;22989;55.998;37.212;2024-01-30T07:44:36;43601.78;;;-145.39;57.78
37078;BME280;22989;55.998;37.212;2024-01-30T07:47:01;43551.00;;;-145.39;57.81
37078;BME280;22989;55.998;37.212;2024-01-30T07:49:28;43535.38;;;-145.39;57.62
37078;BME280;22989;55.998;37.212;2024-01-30T07:51:53;43476.78;;;-145.39;57.70
37078;BME280;22989;55.998;37.212;2024-01-30T07:54:19;43459.22;;;-145.39;57.59
37078;BME280;22989;55.998;37.212;2024-01-30T07:56:44;43455.31;;;-145.39;57.58
37078;BME280;22989;55.998;37.212;2024-01-30T07:59:11;43521.72;;;-145.39;57.51
37078;BME280;22989;55.998;37.212;2024-01-30T08:01:37;43531.47;;;-145.39;57.46
37078;BME280;22989;55.998;37.212;2024-01-30T08:04:02;43549.06;;;-145.39;57.58
37078;BME280;22989;55.998;37.212;2024-01-30T08:06:28;43603.75;;;-145.39;57.51
37078;BME280;22989;55.998;37.212;2024-01-30T08:08:53;43615.47;;;-145.39;57.38
37078;BME280;22989;55.998;37.212;2024-01-30T08:11:22;43627.19;;;-145.39;57.26
37078;BME280;22989;55.998;37.212;2024-01-30T08:13:52;43627.19;;;-145.39;57.26
37078;BME280;22989;55.998;37.212;2024-01-30T08:16:18;43588.13;;;-145.39;57.33
37078;BME280;22989;55.998;37.212;2024-01-30T08:18:43;43595.94;;;-145.39;57.26
37078;BME280;22989;55.998;37.212;2024-01-30T08:21:09;43625.22;;;-145.39;57.23
37078;BME280;22989;55.998;37.212;2024-01-30T08:23:35;43664.28;;;-145.39;57.16
37078;BME280;22989;55.998;37.212;2024-01-30T08:26:00;43668.19;;;-145.39;57.11
37078;BME280;22989;55.998;37.212;2024-01-30T08:28:26;43683.81;;;-145.39;57.06
37078;BME280;22989;55.998;37.212;2024-01-30T08:30:52;43627.19;;;-145.39;57.24
37078;BME280;22989;55.998;37.212;2024-01-30T08:33:18;43494.38;;;-145.39;57.18
37078;BME280;22989;55.998;37.212;2024-01-30T08:35:43;43447.50;;;-145.39;57.00
37078;BME280;22989;55.998;37.212;2024-01-30T08:38:09;43500.22;;;-145.39;56.73
37078;BME280;22989;55.998;37.212;2024-01-30T08:40:34;43683.81;;;-145.39;56.91
37078;BME280;22989;55.998;37.212;2024-01-30T08:43:00;43748.28;;;-145.39;56.89
37078;BME280;22989;55.998;37.212;2024-01-30T08:45:26;43677.97;;;-145.39;56.82
37078;BME280;22989;55.998;37.212;2024-01-30T08:47:51;43625.22;;;-145.39;56.78
37078;BME280;22989;55.998;37.212;2024-01-30T08:50:17;43660.38;;;-145.39;56.62
37078;BME280;22989;55.998;37.212;2024-01-30T08:52:42;43709.22;;;-145.39;56.66
37078;BME280;22989;55.998;37.212;2024-01-30T08:55:08;43740.47;;;-145.39;56.53
37078;BME280;22989;55.998;37.212;2024-01-30T08:57:34;43722.88;;;-145.39;56.45
37078;BME280;22989;55.998;37.212;2024-01-30T09:00:00;43580.31;;;-145.39;56.37
37078;BME280;22989;55.998;37.212;2024-01-30T09:02:25;43508.03;;;-145.39;56.21
37078;BME280;22989;55.998;37.212;2024-01-30T09:04:51;43545.16;;;-145.39;56.25
37078;BME280;22989;55.998;37.212;2024-01-30T09:07:16;43652.56;;;-145.39;56.24
37078;BME280;22989;55.998;37.212;2024-01-30T09:09:42;43668.19;;;-145.39;56.08
37078;BME280;22989;55.998;37.212;2024-01-30T09:12:08;43691.63;;;-145.39;56.15
37078;BME280;22989;55.998;37.212;2024-01-30T09:14:35;43627.19;;;-145.39;56.03
37078;BME280;22989;55.998;37.212;2024-01-30T09:17:01;43580.31;;;-145.39;56.04
37078;BME280;22989;55.998;37.212;2024-01-30T09:19:28;43515.84;;;-145.39;55.88
37078;BME280;22989;55.998;37.212;2024-01-30T09:21:54;43480.69;;;-145.39;55.77
37078;BME280;22989;55.998;37.212;2024-01-30T09:24:19;43482.66;;;-145.39;55.76
37078;BME280;22989;55.998;37.212;2024-01-30T09:26:45;43455.31;;;-145.39;55.56
37078;BME280;22989;55.998;37.212;2024-01-30T09:29:10;43461.16;;;-145.39;55.61
37078;BME280;22989;55.998;37.212;2024-01-30T09:31:36;43537.34;;;-145.39;55.59
37078;BME280;22989;55.998;37.212;2024-01-30T09:34:01;43609.59;;;-145.39;55.67
37078;BME280;22989;55.998;37.212;2024-01-30T09:36:27;43656.47;;;-145.39;55.63
37078;BME280;22989;55.998;37.212;2024-01-30T09:38:53;43715.06;;;-145.39;55.63
37078;BME280;22989;55.998;37.212;2024-01-30T09:41:19;43715.06;;;-145.39;55.54
37078;BME280;22989;55.998;37.212;2024-01-30T09:43:47;43670.16;;;-145.39;55.56
37078;BME280;22989;55.998;37.212;2024-01-30T09:46:17;43590.06;;;-145.39;55.52
37078;BME280;22989;55.998;37.212;2024-01-30T09:48:48;43572.50;;;-145.39;55.53
37078;BME280;22989;55.998;37.212;2024-01-30T09:51:15;43619.38;;;-145.39;55.20
37078;BME280;22989;55.998;37.212;2024-01-30T09:53:43;43603.75;;;-145.39;55.05
37078;BME280;22989;55.998;37.212;2024-01-30T09:56:12;43586.16;;;-145.39;55.13
37078;BME280;22989;55.998;37.212;2024-01-30T09:58:38;43601.78;;;-145.39;55.03
37078;BME280;22989;55.998;37.212;2024-01-30T10:01:05;43588.13;;;-145.39;54.75
37078;BME280;22989;55.998;37.212;2024-01-30T10:03:31;43554.91;;;-145.39;54.93
37078;BME280;22989;55.998;37.212;2024-01-30T10:05:56;43566.63;;;-145.39;54.76
37078;BME280;22989;55.998;37.212;2024-01-30T10:08:22;43545.16;;;-145.39;54.87
37078;BME280;22989;55.998;37.212;2024-01-30T10:10:49;43506.09;;;-145.39;54.91
37078;BME280;22989;55.998;37.212;2024-01-30T10:13:18;43539.28;;;-145.39;54.68
37078;BME280;22989;55.998;37.212;2024-01-30T10:15:44;43576.41;;;-145.39;54.68
37078;BME280;22989;55.998;37.212;2024-01-30T10:18:10;43652.56;;;-145.39;54.65
37078;BME280;22989;55.998;37.212;2024-01-30T10:20:37;43662.34;;;-145.39;54.90
37078;BME280;22989;55.998;37.212;2024-01-30T10:23:03;43623.28;;;-145.39;54.69
37078;BME280;22989;55.998;37.212;2024-01-30T10:25:30;43697.50;;;-145.39;54.52
37078;BME280;22989;55.998;37.212;2024-01-30T10:27:57;43802.97;;;-145.39;54.51
37078;BME280;22989;55.998;37.212;2024-01-30T10:30:23;43767.81;;;-145.39;54.55
37078;BME280;22989;55.998;37.212;2024-01-30T10:32:50;43670.16;;;-145.39;54.39
37078;BME280;22989;55.998;37.212;2024-01-30T10:35:16;43691.63;;;-145.39;54.37
37078;BME280;22989;55.998;37.212;2024-01-30T10:37:49;43578.34;;;-145.39;53.88
37078;BME280;22989;55.998;37.212;2024-01-30T10:40:15;43627.19;;;-145.39;53.94
37078;BME280;22989;55.998;37.212;2024-01-30T10:42:44;43570.53;;;-145.39;53.83
37078;BME280;22989;55.998;37.212;2024-01-30T10:45:13;43554.91;;;-145.39;53.70
37078;BME280;22989;55.998;37.212;2024-01-30T10:47:48;43508.03;;;-145.39;53.65
37078;BME280;22989;55.998;37.212;2024-01-30T10:50:15;43517.81;;;-145.39;53.46
37078;BME280;22989;55.998;37.212;2024-01-30T10:52:41;43500.22;;;-145.39;53.37
37078;BME280;22989;55.998;37.212;2024-01-30T10:55:07;43437.72;;;-145.39;53.39
37078;BME280;22989;55.998;37.212;2024-01-30T10:57:37;43433.81;;;-145.39;53.37
37078;BME280;22989;55.998;37.212;2024-01-30T11:00:08;43402.56;;;-145.39;53.40
37078;BME280;22989;55.998;37.212;2024-01-30T11:02:39;43410.38;;;-145.39;53.35
37078;BME280;22989;55.998;37.212;2024-01-30T11:05:05;43365.47;;;-145.39;53.40
37078;BME280;22989;55.998;37.212;2024-01-30T11:07:31;43345.94;;;-145.39;53.44
37078;BME280;22989;55.998;37.212;2024-01-30T11:10:04;43369.38;;;-145.39;53.51
37078;BME280;22989;55.998;37.212;2024-01-30T11:12:31;43404.53;;;-145.39;53.42
37078;BME280;22989;55.998;37.212;2024-01-30T11:15:07;43349.84;;;-145.39;53.45
37078;BME280;22989;55.998;37.212;2024-01-30T11:20:15;43318.59;;;-145.39;53.56
37078;BME280;22989;55.998;37.212;2024-01-30T11:22:42;43297.13;;;-145.39;53.87
37078;BME280;22989;55.998;37.212;2024-01-30T11:25:16;43367.44;;;-145.39;53.78
37078;BME280;22989;55.998;37.212;2024-01-30T11:27:45;43375.25;;;-145.39;53.71
37078;BME280;22989;55.998;37.212;2024-01-30T11:30:30;43392.81;;;-145.39;53.88
37078;BME280;22989;55.998;37.212;2024-01-30T11:33:05;43359.63;;;-145.39;53.85
37078;BME280;22989;55.998;37.212;2024-01-30T11:35:50;43396.72;;;-145.39;53.77
37078;BME280;22989;55.998;37.212;2024-01-30T11:38:16;43367.44;;;-145.39;53.87
37078;BME280;22989;55.998;37.212;2024-01-30T11:40:41;43367.44;;;-145.39;53.88
37078;BME280;22989;55.998;37.212;2024-01-30T11:43:08;43347.91;;;-145.39;53.80
37078;BME280;22989;55.998;37.212;2024-01-30T11:45:35;43369.38;;;-145.39;53.78
37078;BME280;22989;55.998;37.212;2024-01-30T11:48:02;43410.38;;;-145.39;53.92
37078;BME280;22989;55.998;37.212;2024-01-30T11:50:29;43332.28;;;-145.39;54.07
37078;BME280;22989;55.998;37.212;2024-01-30T11:52:55;43373.28;;;-145.39;53.98
37078;BME280;22989;55.998;37.212;2024-01-30T11:55:23;43345.94;;;-145.39;54.00
37078;BME280;22989;55.998;37.212;2024-01-30T11:57:49;43312.75;;;-145.39;54.13
37078;BME280;22989;55.998;37.212;2024-01-30T12:00:15;43312.75;;;-145.39;54.00
37078;BME280;22989;55.998;37.212;2024-01-30T12:02:42;43332.28;;;-145.39;54.07
37078;BME280;22989;55.998;37.212;2024-01-30T12:05:08;43295.16;;;-145.39;54.17
37078;BME280;22989;55.998;37.212;2024-01-30T12:07:37;43330.31;;;-145.39;54.22
37078;BME280;22989;55.998;37.212;2024-01-30T12:10:03;43353.75;;;-145.39;54.34
37078;BME280;22989;55.998;37.212;2024-01-30T12:12:29;43398.69;;;-145.39;54.28
37078;BME280;22989;55.998;37.212;2024-01-30T12:14:55;43388.91;;;-145.39;54.42
37078;BME280;22989;55.998;37.212;2024-01-30T12:17:29;43381.09;;;-145.39;54.40
37078;BME280;22989;55.998;37.212;2024-01-30T12:22:43;43349.84;;;-145.39;54.22
37078;BME280;22989;55.998;37.212;2024-01-30T12:27:39;43416.25;;;-145.39;54.44
37078;BME280;22989;55.998;37.212;2024-01-30T12:30:06;43422.09;;;-145.39;54.49
37078;BME280;22989;55.998;37.212;2024-01-30T12:32:34;43472.88;;;-145.39;54.34